Flight Track Log - Related Links

Times and Time Zones

All times are in EDT time to prevent confusion due to time zone crossing. See the CTL22 flight status page for this flight to view local times or setup timezone preferences in your user account.

Time Position Orientation Groundspeed Altitude Reporting Facility
EDT Latitude Longitude Course Direction KTS MPH feet Rate Location/Type
Tue 07:58:19 PM 42.2103 -85.4036 115° Southeast 151 174 3,900  Level Chicago Center
Tue 07:59:21 PM 42.1917 -85.3494 115° Southeast 157 181 4,600 677 Climbing Chicago Center
Tue 08:00:23 PM 42.1672 -85.2839 117° Southeast 161 185 5,300 629 Climbing Chicago Center
Tue 08:01:00 PM 42.1650 -85.1398 103° East  Level Estimated
Tue 08:01:25 PM 42.1483 -85.2308 116° Southeast 159 183 5,900  Level Chicago Center
Tue 08:02:00 PM 42.1533 -85.0713 103° East  Level Estimated
Tue 08:02:26 PM 42.1306 -85.1764 114° Southeast 159 183 6,900  Level Chicago Center
Tue 08:03:28 PM 42.1172 -85.1283 110° East 142 163 7,100 97 Climbing Chicago Center
Tue 08:04:30 PM 42.0967 -85.0783 119° Southeast 149 171 7,100 -48 Level Chicago Center
Tue 08:05:32 PM 42.0778 -85.0247 115° Southeast 156 180 7,000 -145 Descending Chicago Center
Tue 08:06:34 PM 42.0675 -84.9858 110° East 119 137 6,800 48 Descending Chicago Center
Tue 08:07:36 PM 42.0489 -84.9244 112° Southeast 141 162 7,100 195 Climbing Chicago Center
Tue 08:08:37 PM 42.0261 -84.8611 116° Southeast 175 201 7,200 98 Climbing Chicago Center
Tue 08:09:39 PM 42.0117 -84.7958 107° East 182 209 7,300 -48 Climbing Chicago Center
Tue 08:10:41 PM 41.9906 -84.7303 113° Southeast 188 216 7,100 -194 Descending Chicago Center
Tue 08:11:43 PM 41.9692 -84.6631 113° Southeast 193 222 6,900 -145 Descending Chicago Center
Tue 08:12:45 PM 41.9453 -84.5972 116° Southeast 195 224 6,800 145 Descending Chicago Center
Tue 08:13:47 PM 41.9192 -84.5378 121° Southeast 187 215 7,200 194 Climbing Chicago Center
Tue 08:14:49 PM 41.8900 -84.4647 118° Southeast 185 213 7,200 -48 Level Chicago Center
Tue 08:15:51 PM 41.8578 -84.4133 130° Southeast 186 214 7,100  Descending Chicago Center
Tue 08:16:53 PM 41.8328 -84.3544 120° Southeast 186 214 7,200 48 Climbing Chicago Center
Tue 08:17:55 PM 41.8094 -84.2919 117° Southeast 186 214 7,200 -48 Level Chicago Center
Tue 08:18:57 PM 41.7850 -84.2314 118° Southeast 185 213 7,100  Descending Chicago Center
Tue 08:19:59 PM 41.7622 -84.1669 115° Southeast 189 217 7,200 97 Climbing Chicago Center

Login

Don't have an account? Register now (free) for customized features, flight alerts, and more!